Time,TemperatureF,DewpointF,PressureIn,WindDirection,WindDirectionDegrees,WindSpeedMPH,WindSpeedGustMPH,Humidity,HourlyPrecipIn,Conditions,Clouds,dailyrainin,SoftwareType,DateUTC
2013-01-08 00:03:00,26.7,19.0,29.87,North,355,5.0,7.0,73,0.00,,,0.00,weatherlink.com 1.10,2013-01-08 07:03:00,
2013-01-08 00:17:00,27.6,19.0,29.88,East,95,2.0,4.0,70,0.00,,,0.00,weatherlink.com 1.10,2013-01-08 07:17:00,
2013-01-08 00:32:00,26.8,19.0,29.88,NNE,26,0.0,3.0,73,0.00,,,0.00,weatherlink.com 1.10,2013-01-08 07:32:00,
2013-01-08 00:46:00,26.5,20.0,29.88,NNW,337,2.0,3.0,76,0.00,,,0.00,weatherlink.com 1.10,2013-01-08 07:46:00,
2013-01-08 01:01:00,26.6,21.0,29.88,North,358,6.0,7.0,79,0.00,,,0.00,weatherlink.com 1.10,2013-01-08 08:01:00,
2013-01-08 01:15:00,27.8,21.0,29.88,NNE,19,7.0,7.0,75,0.00,,,0.00,weatherlink.com 1.10,2013-01-08 08:15:00,
2013-01-08 01:30:00,29.0,21.0,29.87,North,358,5.0,7.0,73,0.00,,,0.00,weatherlink.com 1.10,2013-01-08 08:30:00,
2013-01-08 01:44:00,28.2,21.0,29.87,NW,315,2.0,4.0,75,0.00,,,0.00,weatherlink.com 1.10,2013-01-08 08:44:00,
2013-01-08 01:58:00,29.2,22.0,29.88,NE,34,0.0,4.0,73,0.00,,,0.00,weatherlink.com 1.10,2013-01-08 08:58:00,
2013-01-08 02:13:00,28.1,20.0,29.89,ESE,123,7.0,7.0,72,0.00,,,0.00,weatherlink.com 1.10,2013-01-08 09:13:00,
2013-01-08 02:28:00,25.7,19.0,29.90,East,101,8.0,8.0,76,0.00,,,0.00,weatherlink.com 1.10,2013-01-08 09:28:00,
2013-01-08 02:42:00,24.7,19.0,29.91,East,96,0.0,6.0,78,0.00,,,0.00,weatherlink.com 1.10,2013-01-08 09:42:00,
2013-01-08 02:56:00,26.5,20.0,29.90,NNW,335,4.0,5.0,76,0.00,,,0.00,weatherlink.com 1.10,2013-01-08 09:56:00,
2013-01-08 03:11:00,28.4,21.0,29.91,NNW,336,4.0,7.0,73,0.00,,,0.00,weatherlink.com 1.10,2013-01-08 10:11:00,
2013-01-08 03:25:00,26.6,20.0,29.91,NW,317,4.0,6.0,75,0.00,,,0.00,weatherlink.com 1.10,2013-01-08 10:25:00,
2013-01-08 03:40:00,26.6,21.0,29.92,NNW,343,5.0,7.0,78,0.00,,,0.00,weatherlink.com 1.10,2013-01-08 10:40:00,
2013-01-08 03:54:00,27.4,21.0,29.91,North,359,4.0,7.0,77,0.00,,,0.00,weatherlink.com 1.10,2013-01-08 10:54:00,
2013-01-08 04:09:00,28.4,21.0,29.91,NNW,337,3.0,7.0,75,0.00,,,0.00,weatherlink.com 1.10,2013-01-08 11:09:00,
2013-01-08 04:23:00,28.9,21.0,29.91,North,354,5.0,8.0,73,0.00,,,0.00,weatherlink.com 1.10,2013-01-08 11:23:00,
2013-01-08 04:38:00,30.2,21.0,29.91,NNW,332,4.0,6.0,69,0.00,,,0.00,weatherlink.com 1.10,2013-01-08 11:38:00,
2013-01-08 04:52:00,29.6,20.0,29.91,NNW,328,4.0,6.0,68,0.00,,,0.00,weatherlink.com 1.10,2013-01-08 11:52:00,
2013-01-08 05:07:00,28.0,19.0,29.92,NE,50,1.0,3.0,70,0.00,,,0.00,weatherlink.com 1.10,2013-01-08 12:07:00,
2013-01-08 05:21:00,27.2,19.0,29.93,ENE,75,0.0,4.0,72,0.00,,,0.00,weatherlink.com 1.10,2013-01-08 12:21:00,
2013-01-08 05:35:00,26.8,20.0,29.93,East,89,1.0,2.0,74,0.00,,,0.00,weatherlink.com 1.10,2013-01-08 12:35:00,
2013-01-08 05:50:00,26.7,20.0,29.93,North,349,2.0,5.0,74,0.00,,,0.00,weatherlink.com 1.10,2013-01-08 12:50:00,
2013-01-08 06:04:00,30.5,19.0,29.94,WNW,293,1.0,5.0,63,0.00,,,0.00,weatherlink.com 1.10,2013-01-08 13:04:00,
2013-01-08 06:18:00,29.2,19.0,29.94,ENE,72,1.0,5.0,65,0.00,,,0.00,weatherlink.com 1.10,2013-01-08 13:18:00,
2013-01-08 06:32:00,26.6,18.0,29.94,ENE,63,0.0,6.0,70,0.00,,,0.00,weatherlink.com 1.10,2013-01-08 13:32:00,
2013-01-08 06:47:00,27.4,18.0,29.95,NNW,346,3.0,6.0,68,0.00,,,0.00,weatherlink.com 1.10,2013-01-08 13:47:00,
2013-01-08 07:02:00,26.3,18.0,29.95,North,358,2.0,5.0,70,0.00,,,0.00,weatherlink.com 1.10,2013-01-08 14:02:00,
2013-01-08 07:16:00,29.8,19.0,29.95,NNW,343,4.0,7.0,63,0.00,,,0.00,weatherlink.com 1.10,2013-01-08 14:16:00,
2013-01-08 07:30:00,29.3,18.0,29.95,North,355,5.0,5.0,63,0.00,,,0.00,weatherlink.com 1.10,2013-01-08 14:30:00,
2013-01-08 07:44:00,29.3,19.0,29.97,NE,49,3.0,4.0,64,0.00,,,0.00,weatherlink.com 1.10,2013-01-08 14:44:00,
2013-01-08 07:59:00,29.3,18.0,29.98,North,11,9.0,9.0,62,0.00,,,0.00,weatherlink.com 1.10,2013-01-08 14:59:00,
2013-01-08 08:13:00,31.3,18.0,29.98,NNW,347,6.0,9.0,58,0.00,,,0.00,weatherlink.com 1.10,2013-01-08 15:13:00,
2013-01-08 08:28:00,29.2,18.0,29.99,NNE,12,3.0,6.0,62,0.00,,,0.00,weatherlink.com 1.10,2013-01-08 15:28:00,
2013-01-08 08:42:00,30.6,19.0,30.00,North,1,0.0,5.0,62,0.00,,,0.00,weatherlink.com 1.10,2013-01-08 15:42:00,
2013-01-08 08:57:00,31.7,20.0,30.00,NNW,340,3.0,5.0,61,0.00,,,0.00,weatherlink.com 1.10,2013-01-08 15:57:00,
2013-01-08 09:11:00,33.2,21.0,30.00,North,359,3.0,5.0,60,0.00,,,0.00,weatherlink.com 1.10,2013-01-08 16:11:00,
2013-01-08 09:26:00,34.7,22.0,30.01,SE,139,0.0,8.0,60,0.00,,,0.00,weatherlink.com 1.10,2013-01-08 16:26:00,
2013-01-08 09:40:00,38.0,24.0,30.01,NNW,333,3.0,3.0,56,0.00,,,0.00,weatherlink.com 1.10,2013-01-08 16:40:00,
2013-01-08 09:55:00,37.5,23.0,30.02,ENE,58,2.0,4.0,56,0.00,,,0.00,weatherlink.com 1.10,2013-01-08 16:55:00,
2013-01-08 10:09:00,37.9,24.0,30.02,NNE,29,1.0,2.0,56,0.00,,,0.00,weatherlink.com 1.10,2013-01-08 17:09:00,
2013-01-08 10:24:00,39.2,24.0,30.02,ESE,112,4.0,5.0,55,0.00,,,0.00,weatherlink.com 1.10,2013-01-08 17:24:00,
2013-01-08 10:38:00,40.8,25.0,30.01,NE,54,1.0,2.0,52,0.00,,,0.00,weatherlink.com 1.10,2013-01-08 17:38:00,
2013-01-08 10:52:00,42.6,25.0,30.02,West,271,0.0,2.0,50,0.00,,,0.00,weatherlink.com 1.10,2013-01-08 17:52:00,
2013-01-08 11:07:00,43.8,22.0,30.02,NW,314,0.0,2.0,42,0.00,,,0.00,weatherlink.com 1.10,2013-01-08 18:07:00,
2013-01-08 11:21:00,43.1,23.0,30.01,WSW,252,3.0,5.0,44,0.00,,,0.00,weatherlink.com 1.10,2013-01-08 18:21:00,
2013-01-08 11:36:00,43.9,23.0,30.02,West,274,1.0,3.0,44,0.00,,,0.00,weatherlink.com 1.10,2013-01-08 18:36:00,
2013-01-08 11:50:00,44.8,23.0,30.01,West,268,4.0,7.0,41,0.00,,,0.00,weatherlink.com 1.10,2013-01-08 18:50:00,
2013-01-08 12:05:00,45.0,20.0,30.01,WNW,285,3.0,5.0,37,0.00,,,0.00,weatherlink.com 1.10,2013-01-08 19:05:00,
2013-01-08 12:19:00,45.2,16.0,30.01,East,82,9.0,18.0,30,0.00,,,0.00,weatherlink.com 1.10,2013-01-08 19:19:00,
2013-01-08 12:34:00,43.9,21.0,30.01,ESE,122,7.0,24.0,40,0.00,,,0.00,weatherlink.com 1.10,2013-01-08 19:34:00,
2013-01-08 12:48:00,42.8,21.0,30.02,ESE,116,10.0,14.0,42,0.00,,,0.00,weatherlink.com 1.10,2013-01-08 19:48:00,
2013-01-08 13:03:00,42.2,22.0,30.02,ESE,122,3.0,10.0,45,0.00,,,0.00,weatherlink.com 1.10,2013-01-08 20:03:00,
2013-01-08 13:17:00,42.1,22.0,30.04,ESE,115,3.0,9.0,45,0.00,,,0.00,weatherlink.com 1.10,2013-01-08 20:17:00,
2013-01-08 13:32:00,42.0,21.0,30.04,ESE,104,8.0,14.0,43,0.00,,,0.00,weatherlink.com 1.10,2013-01-08 20:32:00,
2013-01-08 13:46:00,42.9,18.0,30.04,East,91,17.0,22.0,37,0.00,,,0.00,weatherlink.com 1.10,2013-01-08 20:46:00,
2013-01-08 14:01:00,43.2,16.0,30.05,East,84,19.0,23.0,33,0.00,,,0.00,weatherlink.com 1.10,2013-01-08 21:01:00,
2013-01-08 14:15:00,43.5,16.0,30.06,East,94,14.0,20.0,33,0.00,,,0.00,weatherlink.com 1.10,2013-01-08 21:15:00,
2013-01-08 14:29:00,42.4,21.0,30.07,ESE,119,10.0,15.0,42,0.00,,,0.00,weatherlink.com 1.10,2013-01-08 21:29:00,
2013-01-08 14:44:00,42.1,21.0,30.07,ESE,119,11.0,18.0,42,0.00,,,0.00,weatherlink.com 1.10,2013-01-08 21:44:00,
2013-01-08 14:58:00,41.5,21.0,30.09,ESE,117,9.0,14.0,44,0.00,,,0.00,weatherlink.com 1.10,2013-01-08 21:58:00,
2013-01-08 15:13:00,40.9,21.0,30.10,East,95,11.0,20.0,44,0.00,,,0.00,weatherlink.com 1.10,2013-01-08 22:13:00,
2013-01-08 15:27:00,40.0,20.0,30.10,East,91,15.0,22.0,45,0.00,,,0.00,weatherlink.com 1.10,2013-01-08 22:27:00,
2013-01-08 15:42:00,38.9,20.0,30.10,East,95,14.0,17.0,46,0.00,,,0.00,weatherlink.com 1.10,2013-01-08 22:42:00,
2013-01-08 15:56:00,38.6,21.0,30.11,East,101,16.0,19.0,48,0.00,,,0.00,weatherlink.com 1.10,2013-01-08 22:56:00,
2013-01-08 16:11:00,36.7,20.0,30.13,ESE,105,17.0,17.0,51,0.00,,,0.00,weatherlink.com 1.10,2013-01-08 23:11:00,
2013-01-08 16:25:00,35.6,19.0,30.14,ESE,102,10.0,14.0,51,0.00,,,0.00,weatherlink.com 1.10,2013-01-08 23:25:00,
2013-01-08 16:39:00,33.8,19.0,30.15,ENE,70,6.0,8.0,54,0.00,,,0.00,weatherlink.com 1.10,2013-01-08 23:39:00,
2013-01-08 16:53:00,32.9,18.0,30.16,ENE,72,4.0,6.0,53,0.00,,,0.00,weatherlink.com 1.10,2013-01-08 23:53:00,
2013-01-08 17:08:00,32.4,17.0,30.16,NE,42,4.0,5.0,53,0.00,,,0.00,weatherlink.com 1.10,2013-01-09 00:08:00,
2013-01-08 17:22:00,31.3,17.0,30.17,NNE,16,2.0,4.0,56,0.00,,,0.00,weatherlink.com 1.10,2013-01-09 00:22:00,
2013-01-08 17:37:00,28.7,17.0,30.17,NNW,328,5.0,6.0,62,0.00,,,0.00,weatherlink.com 1.10,2013-01-09 00:37:00,
2013-01-08 17:51:00,27.3,16.0,30.19,North,359,5.0,6.0,63,0.00,,,0.00,weatherlink.com 1.10,2013-01-09 00:51:00,
2013-01-08 18:06:00,26.8,16.0,30.19,NNW,345,3.0,5.0,64,0.00,,,0.00,weatherlink.com 1.10,2013-01-09 01:06:00,
2013-01-08 18:20:00,28.0,16.0,30.19,ENE,67,0.0,5.0,60,0.00,,,0.00,weatherlink.com 1.10,2013-01-09 01:20:00,
2013-01-08 18:34:00,27.8,16.0,30.19,NE,40,0.0,1.0,60,0.00,,,0.00,weatherlink.com 1.10,2013-01-09 01:34:00,
2013-01-08 18:49:00,29.4,16.0,30.19,NNW,341,3.0,3.0,56,0.00,,,0.00,weatherlink.com 1.10,2013-01-09 01:49:00,
2013-01-08 19:03:00,25.9,15.0,30.19,North,1,5.0,6.0,64,0.00,,,0.00,weatherlink.com 1.10,2013-01-09 02:03:00,
2013-01-08 19:18:00,23.9,14.0,30.19,WNW,300,7.0,7.0,66,0.00,,,0.00,weatherlink.com 1.10,2013-01-09 02:18:00,
2013-01-08 19:32:00,21.1,14.0,30.19,NNW,339,5.0,8.0,74,0.00,,,0.00,weatherlink.com 1.10,2013-01-09 02:32:00,
2013-01-08 19:46:00,22.9,15.0,30.19,NW,314,7.0,7.0,71,0.00,,,0.00,weatherlink.com 1.10,2013-01-09 02:46:00,
2013-01-08 20:01:00,21.7,15.0,30.20,North,349,7.0,7.0,74,0.00,,,0.00,weatherlink.com 1.10,2013-01-09 03:01:00,
2013-01-08 20:16:00,22.3,15.0,30.21,NNW,346,5.0,7.0,72,0.00,,,0.00,weatherlink.com 1.10,2013-01-09 03:16:00,
2013-01-08 20:30:00,21.8,15.0,30.21,NNW,330,6.0,7.0,74,0.00,,,0.00,weatherlink.com 1.10,2013-01-09 03:30:00,
2013-01-08 20:45:00,22.3,15.0,30.21,NNW,343,4.0,7.0,74,0.00,,,0.00,weatherlink.com 1.10,2013-01-09 03:45:00,
2013-01-08 20:59:00,23.4,16.0,30.21,NNW,342,5.0,8.0,72,0.00,,,0.00,weatherlink.com 1.10,2013-01-09 03:59:00,
2013-01-08 21:14:00,23.5,16.0,30.20,NNW,343,6.0,9.0,72,0.00,,,0.00,weatherlink.com 1.10,2013-01-09 04:14:00,
2013-01-08 21:28:00,22.3,15.0,30.20,NNW,336,5.0,6.0,74,0.00,,,0.00,weatherlink.com 1.10,2013-01-09 04:28:00,
2013-01-08 21:42:00,22.3,15.0,30.20,North,349,5.0,6.0,73,0.00,,,0.00,weatherlink.com 1.10,2013-01-09 04:42:00,
2013-01-08 21:56:00,22.2,15.0,30.20,NNW,345,3.0,6.0,73,0.00,,,0.00,weatherlink.com 1.10,2013-01-09 04:56:00,
2013-01-08 22:11:00,21.3,15.0,30.19,NNW,340,5.0,6.0,75,0.00,,,0.00,weatherlink.com 1.10,2013-01-09 05:11:00,
2013-01-08 22:25:00,20.9,14.0,30.19,North,1,6.0,7.0,75,0.00,,,0.00,weatherlink.com 1.10,2013-01-09 05:25:00,
2013-01-08 22:39:00,22.0,15.0,30.19,NW,309,5.0,8.0,74,0.00,,,0.00,weatherlink.com 1.10,2013-01-09 05:39:00,
2013-01-08 22:53:00,22.0,15.0,30.19,NW,309,4.0,7.0,73,0.00,,,0.00,weatherlink.com 1.10,2013-01-09 05:53:00,
2013-01-08 23:08:00,20.3,14.0,30.19,NE,34,1.0,5.0,75,0.00,,,0.00,weatherlink.com 1.10,2013-01-09 06:08:00,
2013-01-08 23:22:00,19.3,13.0,30.19,NW,325,5.0,5.0,76,0.00,,,0.00,weatherlink.com 1.10,2013-01-09 06:22:00,
2013-01-08 23:36:00,20.4,14.0,30.19,NW,323,3.0,7.0,76,0.00,,,0.00,weatherlink.com 1.10,2013-01-09 06:36:00,
2013-01-08 23:51:00,21.1,14.0,30.19,NNW,342,6.0,7.0,74,0.00,,,0.00,weatherlink.com 1.10,2013-01-09 06:51:00,